createdAt,value
2023-05-09T00:00:11.241Z,8.56
2023-05-09T00:05:16.786Z,8.37
2023-05-09T00:10:24.585Z,8.44
2023-05-09T00:15:30.679Z,8.56
2023-05-09T00:20:36.948Z,8.52
2023-05-09T00:25:44.680Z,8.67
2023-05-09T00:30:49.809Z,8.73
2023-05-09T00:35:55.106Z,8.68
2023-05-09T00:41:04.773Z,8.59
2023-05-09T00:46:10.417Z,8.53
2023-05-09T00:51:17.136Z,8.50
2023-05-09T00:56:25.082Z,8.67
2023-05-09T01:01:30.362Z,8.65
2023-05-09T01:06:41.948Z,8.65
2023-05-09T01:11:56.864Z,8.72
2023-05-09T01:17:09.186Z,8.76
2023-05-09T01:22:17.755Z,8.76
2023-05-09T01:27:38.615Z,8.77
2023-05-09T01:32:46.786Z,8.65
2023-05-09T01:37:53.188Z,8.74
2023-05-09T01:43:02.038Z,8.53
2023-05-09T01:48:11.622Z,8.27
2023-05-09T01:53:20.819Z,8.25
2023-05-09T01:58:28.692Z,8.39
2023-05-09T02:03:37.733Z,8.26
2023-05-09T02:08:43.615Z,8.09
2023-05-09T02:13:48.949Z,8.03
2023-05-09T02:18:56.752Z,8.02
2023-05-09T02:24:02.018Z,7.97
2023-05-09T02:29:10.091Z,8.00
2023-05-09T02:34:19.565Z,8.14
2023-05-09T02:39:24.680Z,8.16
2023-05-09T02:44:29.895Z,7.91
2023-05-09T02:49:38.157Z,7.88
2023-05-09T02:54:43.737Z,7.83
2023-05-09T02:59:48.880Z,7.60
2023-05-09T03:04:56.898Z,7.64
2023-05-09T03:10:02.061Z,7.72
2023-05-09T03:15:10.488Z,7.49
2023-05-09T03:20:23.379Z,7.50
2023-05-09T03:25:29.096Z,7.34
2023-05-09T03:30:34.236Z,7.57
2023-05-09T03:35:42.866Z,7.53
2023-05-09T03:40:50.874Z,7.59
2023-05-09T03:45:56.863Z,7.53
2023-05-09T03:51:07.276Z,7.53
2023-05-09T03:56:16.669Z,7.30
2023-05-09T04:01:27.657Z,7.48
2023-05-09T04:06:39.807Z,7.50
2023-05-09T04:11:47.345Z,7.44
2023-05-09T04:16:54.012Z,7.57
2023-05-09T04:22:02.427Z,7.75
2023-05-09T04:27:08.227Z,7.90
2023-05-09T04:32:15.275Z,8.09
2023-05-09T04:37:23.577Z,8.67
2023-05-09T04:42:29.182Z,9.76
2023-05-09T04:47:34.712Z,10.17
2023-05-09T04:52:42.637Z,10.30
2023-05-09T04:57:47.903Z,10.60
2023-05-09T05:02:53.130Z,10.66
2023-05-09T05:08:01.122Z,11.29
2023-05-09T05:13:11.752Z,11.34
2023-05-09T05:18:20.924Z,12.23
2023-05-09T05:23:37.157Z,11.75
2023-05-09T05:28:55.720Z,12.67
2023-05-09T05:34:03.323Z,11.72
2023-05-09T05:39:13.095Z,11.81
2023-05-09T05:44:21.448Z,12.16
2023-05-09T05:49:28.666Z,12.51
2023-05-09T05:54:40.549Z,12.44
2023-05-09T05:59:46.210Z,12.88
2023-05-09T06:04:53.289Z,13.79
2023-05-09T06:10:02.282Z,15.35
2023-05-09T06:15:11.902Z,14.60
2023-05-09T06:20:20.668Z,13.46
2023-05-09T06:25:30.939Z,15.01
2023-05-09T06:30:41.146Z,15.12
2023-05-09T06:35:57.461Z,15.99
2023-05-09T06:41:09.492Z,13.83
2023-05-09T06:46:14.877Z,16.26
2023-05-09T06:51:19.905Z,16.90
2023-05-09T06:57:00.651Z,17.02
2023-05-09T07:02:12.849Z,13.84
2023-05-09T07:07:17.913Z,14.74
2023-05-09T07:12:25.608Z,13.00
2023-05-09T07:17:31.057Z,14.08
2023-05-09T07:22:43.717Z,13.68
2023-05-09T07:27:51.865Z,14.69
2023-05-09T07:32:57.125Z,14.79
2023-05-09T07:38:06.482Z,13.66
2023-05-09T07:43:16.102Z,13.41
2023-05-09T07:48:21.582Z,14.57
2023-05-09T07:53:26.996Z,14.44
2023-05-09T07:58:37.728Z,14.42
2023-05-09T08:03:43.200Z,14.17
2023-05-09T08:08:48.638Z,14.41
2023-05-09T08:14:01.166Z,15.02
2023-05-09T08:19:06.398Z,13.90
2023-05-09T08:24:13.942Z,14.58
2023-05-09T08:29:21.557Z,15.13
2023-05-09T08:34:27.294Z,15.07
2023-05-09T08:39:35.074Z,13.87
2023-05-09T08:44:44.640Z,14.73
2023-05-09T08:49:51.010Z,14.61
2023-05-09T08:54:56.824Z,14.81
2023-05-09T09:00:13.145Z,15.34
2023-05-09T09:05:34.600Z,15.33
2023-05-09T09:10:48.508Z,14.70
2023-05-09T09:15:58.319Z,15.20
2023-05-09T09:21:10.703Z,15.31
2023-05-09T09:26:16.902Z,15.70
2023-05-09T09:31:29.434Z,15.74
2023-05-09T09:36:36.925Z,16.24
2023-05-09T09:41:46.942Z,15.86
2023-05-09T09:46:56.626Z,15.94
2023-05-09T09:52:02.523Z,16.63
2023-05-09T09:57:09.545Z,16.33
2023-05-09T10:02:18.770Z,16.85
2023-05-09T10:07:26.503Z,16.34
2023-05-09T10:12:34.555Z,17.02
2023-05-09T10:17:44.553Z,17.27
2023-05-09T10:22:51.389Z,17.17
2023-05-09T10:28:01.812Z,17.40
2023-05-09T10:33:12.641Z,16.14
2023-05-09T10:38:22.683Z,17.12
2023-05-09T10:43:27.731Z,17.93
2023-05-09T10:48:36.591Z,18.14
2023-05-09T10:53:46.307Z,18.35
2023-05-09T10:58:51.945Z,18.02
2023-05-09T11:04:01.618Z,16.81
2023-05-09T11:09:30.768Z,17.96
2023-05-09T11:14:40.983Z,16.65
2023-05-09T11:20:07.163Z,17.44
2023-05-09T11:25:17.193Z,17.03
2023-05-09T11:30:23.826Z,17.87
2023-05-09T11:35:31.796Z,18.20
2023-05-09T11:40:41.092Z,18.47
2023-05-09T11:45:50.055Z,18.35
2023-05-09T11:50:57.861Z,18.35
2023-05-09T11:56:06.527Z,18.79
2023-05-09T12:01:13.403Z,19.00
2023-05-09T12:06:23.304Z,18.95
2023-05-09T12:11:28.814Z,18.21
2023-05-09T12:16:33.924Z,19.17
2023-05-09T12:21:43.470Z,18.77
2023-05-09T12:26:48.911Z,18.38
2023-05-09T12:31:56.100Z,18.97
2023-05-09T12:37:08.297Z,18.65
2023-05-09T12:42:18.074Z,18.59
2023-05-09T12:47:25.765Z,19.20
2023-05-09T12:52:50.730Z,18.78
2023-05-09T12:58:06.306Z,19.14
2023-05-09T13:03:25.559Z,18.40
2023-05-09T13:08:34.922Z,18.96
2023-05-09T13:13:41.823Z,18.16
2023-05-09T13:18:49.346Z,19.15
2023-05-09T13:24:04.662Z,19.40
2023-05-09T13:29:09.776Z,18.60
2023-05-09T13:34:14.725Z,18.22
2023-05-09T13:39:26.998Z,18.39
2023-05-09T13:44:33.536Z,18.87
2023-05-09T13:49:38.945Z,18.61
2023-05-09T13:54:46.834Z,19.07
2023-05-09T13:59:52.194Z,19.17
2023-05-09T14:04:59.345Z,18.88
2023-05-09T14:10:11.841Z,19.27
2023-05-09T14:15:21.880Z,19.27
2023-05-09T14:20:27.552Z,18.76
2023-05-09T14:25:35.835Z,19.03
2023-05-09T14:30:40.997Z,19.42
2023-05-09T14:35:46.235Z,18.87
2023-05-09T14:40:53.848Z,19.31
2023-05-09T14:45:59.140Z,18.90
2023-05-09T14:51:06.714Z,18.72
2023-05-09T14:56:14.447Z,19.42
2023-05-09T15:01:19.909Z,19.12
2023-05-09T15:06:25.470Z,19.03
2023-05-09T15:11:46.743Z,18.98
2023-05-09T15:16:57.683Z,19.09
2023-05-09T15:22:09.727Z,18.97
2023-05-09T15:27:19.375Z,19.28
2023-05-09T15:32:24.429Z,19.13
2023-05-09T15:37:29.849Z,19.14
2023-05-09T15:42:41.749Z,19.36
2023-05-09T15:47:46.904Z,19.14
2023-05-09T15:52:52.527Z,19.11
2023-05-09T15:58:00.502Z,18.93
2023-05-09T16:03:05.862Z,18.92
2023-05-09T16:08:12.657Z,18.94
2023-05-09T16:13:20.994Z,18.88
2023-05-09T16:18:26.464Z,18.67
2023-05-09T16:23:32.814Z,18.35
2023-05-09T16:28:41.704Z,18.40
2023-05-09T16:33:47.307Z,18.73
2023-05-09T16:38:52.356Z,18.58
2023-05-09T16:44:00.432Z,18.57
2023-05-09T16:49:05.426Z,18.44
2023-05-09T16:54:10.776Z,18.55
2023-05-09T16:59:18.871Z,18.45
2023-05-09T17:04:27.090Z,17.98
2023-05-09T17:09:32.116Z,17.96
2023-05-09T17:14:43.023Z,18.01
2023-05-09T17:19:48.728Z,18.03
2023-05-09T17:24:53.921Z,17.77
2023-05-09T17:30:01.715Z,17.78
2023-05-09T17:35:07.364Z,17.69
2023-05-09T17:40:13.506Z,17.64
2023-05-09T17:45:21.687Z,17.48
2023-05-09T17:50:27.144Z,17.09
2023-05-09T17:55:32.310Z,17.05
2023-05-09T18:00:40.037Z,16.99
2023-05-09T18:05:45.847Z,16.84
2023-05-09T18:10:50.969Z,16.62
2023-05-09T18:16:00.386Z,16.54
2023-05-09T18:21:08.146Z,16.41
2023-05-09T18:26:13.548Z,16.13
2023-05-09T18:31:22.692Z,16.05
2023-05-09T18:36:30.168Z,15.99
2023-05-09T18:41:37.952Z,15.76
2023-05-09T18:46:46.179Z,15.63
2023-05-09T18:51:51.781Z,15.59
2023-05-09T18:56:57.340Z,15.48
2023-05-09T19:02:06.283Z,15.33
2023-05-09T19:07:13.538Z,15.30
2023-05-09T19:12:22.201Z,15.13
2023-05-09T19:17:35.591Z,15.08
2023-05-09T19:22:46.902Z,14.99
2023-05-09T19:27:53.384Z,14.88
2023-05-09T19:33:02.234Z,14.76
2023-05-09T19:38:11.240Z,14.66
2023-05-09T19:43:17.136Z,14.50
2023-05-09T19:48:27.877Z,14.51
2023-05-09T19:53:33.507Z,14.51
2023-05-09T19:58:40.428Z,14.36
2023-05-09T20:03:52.413Z,14.24
2023-05-09T20:08:58.613Z,14.25
2023-05-09T20:14:06.442Z,14.16
2023-05-09T20:19:17.809Z,14.02
2023-05-09T20:24:23.382Z,14.04
2023-05-09T20:29:30.793Z,13.95
2023-05-09T20:34:39.852Z,13.86
2023-05-09T20:39:45.320Z,13.81
2023-05-09T20:44:51.745Z,13.82
2023-05-09T20:49:59.602Z,13.77
2023-05-09T20:55:05.578Z,13.80
2023-05-09T21:00:15.359Z,13.82
2023-05-09T21:05:23.401Z,13.90
2023-05-09T21:10:28.388Z,13.78
2023-05-09T21:15:35.948Z,13.81
2023-05-09T21:20:45.657Z,13.80
2023-05-09T21:25:53.064Z,13.78
2023-05-09T21:31:00.860Z,13.65
2023-05-09T21:36:08.932Z,13.68
2023-05-09T21:41:14.302Z,13.66
2023-05-09T21:46:19.308Z,13.67
2023-05-09T21:51:27.463Z,13.71
2023-05-09T21:56:32.568Z,13.63
2023-05-09T22:01:37.807Z,13.58
2023-05-09T22:06:45.592Z,13.72
2023-05-09T22:11:52.023Z,13.66
2023-05-09T22:16:58.487Z,13.61
2023-05-09T22:22:06.470Z,13.74
2023-05-09T22:27:11.694Z,13.59
2023-05-09T22:32:17.471Z,13.57
2023-05-09T22:37:27.358Z,13.55
2023-05-09T22:42:34.536Z,13.45
2023-05-09T22:47:39.646Z,13.37
2023-05-09T22:52:57.156Z,13.36
2023-05-09T22:58:05.982Z,13.28
2023-05-09T23:03:11.105Z,13.20
2023-05-09T23:08:16.468Z,13.18
2023-05-09T23:13:25.154Z,13.07
2023-05-09T23:18:30.297Z,13.01
2023-05-09T23:23:35.375Z,12.98
2023-05-09T23:28:44.351Z,12.94
2023-05-09T23:33:51.343Z,12.96
2023-05-09T23:38:56.870Z,12.88
2023-05-09T23:44:05.101Z,12.90
2023-05-09T23:49:16.507Z,12.94
2023-05-09T23:54:21.666Z,12.82
2023-05-09T23:59:32.073Z,12.74
